Time;durP1;ratioP1;P1;durP2;ratioP2;P2;SDS_P1;SDS_P2;PMS_P1;PMS_P2;Temp;Humidity;BMP_temperature;BMP_pressure;BME280_temperature;BME280_humidity;BME280_pressure;Samples;Min_cycle;Max_cycle;Signal;HPM_P1;HPM_P2
2023/10/28 00:00:31;;;;;;;9.50;4.70;;;;;;;19.64;75.86;93820.66;5076264;28;20799;-77
2023/10/28 00:02:58;;;;;;;4.93;3.97;;;;;;;19.53;76.34;93855.94;5076469;28;20441;-77
2023/10/28 00:05:25;;;;;;;5.90;3.70;;;;;;;19.53;76.30;93871.91;5076541;28;20464;-78
2023/10/28 00:07:53;;;;;;;7.27;4.03;;;;;;;19.32;77.56;93858.81;5076551;28;20965;-78
2023/10/28 00:10:21;;;;;;;7.70;3.93;;;;;;;19.22;77.83;93869.09;5076256;28;20970;-78
2023/10/28 00:12:49;;;;;;;7.70;4.60;;;;;;;19.36;77.82;93876.00;5075932;28;20534;-77
2023/10/28 00:15:18;;;;;;;7.30;3.70;;;;;;;19.45;77.00;93880.91;5040728;28;20490;-78
2023/10/28 00:17:47;;;;;;;4.23;3.80;;;;;;;19.43;77.23;93874.16;5075996;28;20458;-78
2023/10/28 00:20:17;;;;;;;7.93;3.97;;;;;;;19.30;78.28;93872.34;5076391;28;20800;-78
2023/10/28 00:22:44;;;;;;;8.13;3.67;;;;;;;18.98;79.49;93854.59;5040584;28;20488;-79
2023/10/28 00:25:13;;;;;;;7.57;3.37;;;;;;;19.00;80.20;93845.38;5076121;28;20933;-78
2023/10/28 00:27:40;;;;;;;7.77;4.33;;;;;;;19.13;79.32;93849.88;5076126;28;20478;-78
2023/10/28 00:30:08;;;;;;;4.70;3.70;;;;;;;19.28;79.07;93861.09;5075798;28;20455;-78
2023/10/28 00:32:35;;;;;;;4.70;3.73;;;;;;;19.43;77.96;93847.56;5040749;28;20986;-78
2023/10/28 00:35:02;;;;;;;8.00;4.10;;;;;;;19.50;77.93;93845.69;5075930;28;20444;-78
2023/10/28 00:37:29;;;;;;;5.83;4.60;;;;;;;19.59;77.10;93848.94;5075509;28;20456;-78
2023/10/28 00:39:56;;;;;;;8.70;4.67;;;;;;;19.63;76.95;93864.28;5075592;28;20442;-78
2023/10/28 00:42:24;;;;;;;13.93;4.30;;;;;;;19.59;77.19;93872.91;5075578;28;20531;-78
2023/10/28 00:44:54;;;;;;;12.13;4.03;;;;;;;19.65;77.08;93877.38;5075732;28;20445;-78
2023/10/28 00:47:22;;;;;;;6.33;3.53;;;;;;;19.59;76.82;93852.44;5056854;28;20436;-78
2023/10/28 00:49:49;;;;;;;9.00;4.17;;;;;;;19.61;77.20;93869.00;5075900;28;20787;-78
2023/10/28 00:52:17;;;;;;;9.13;3.47;;;;;;;19.64;76.94;93879.22;5075573;28;20496;-78
2023/10/28 00:54:47;;;;;;;6.40;3.13;;;;;;;19.66;76.59;93877.19;5075201;28;20988;-78
2023/10/28 00:57:14;;;;;;;13.47;5.00;;;;;;;19.18;78.93;93877.47;5075602;28;20908;-78
2023/10/28 00:59:43;;;;;;;6.63;4.00;;;;;;;19.23;78.97;93881.34;5056559;28;20789;-78
2023/10/28 01:02:11;;;;;;;4.90;3.93;;;;;;;19.16;79.18;93882.19;5075213;28;20553;-78
2023/10/28 01:04:38;;;;;;;5.93;3.80;;;;;;;19.10;79.62;93875.06;5075419;28;20437;-77
2023/10/28 01:07:05;;;;;;;7.13;3.80;;;;;;;19.14;79.55;93878.94;5075345;28;20447;-77
2023/10/28 01:09:32;;;;;;;8.33;4.00;;;;;;;19.16;79.85;93884.84;5075000;28;20915;-77
2023/10/28 01:11:59;;;;;;;9.00;4.60;;;;;;;19.15;79.58;93888.53;5075306;28;20447;-77
2023/10/28 01:14:25;;;;;;;14.03;4.50;;;;;;;19.24;79.53;93888.31;5075264;28;20532;-77
2023/10/28 01:16:54;;;;;;;7.13;4.30;;;;;;;19.19;79.03;93879.13;5075159;28;20446;-77
2023/10/28 01:19:21;;;;;;;6.90;3.80;;;;;;;18.78;80.95;93868.72;5075324;28;20478;-77
2023/10/28 01:21:49;;;;;;;6.93;4.20;;;;;;;18.72;81.63;93874.03;5039428;28;20501;-77
2023/10/28 01:24:16;;;;;;;9.00;4.57;;;;;;;18.88;80.85;93878.94;5075148;28;20803;-78
2023/10/28 01:26:43;;;;;;;5.30;3.60;;;;;;;18.94;80.66;93877.31;5074305;28;20439;-77
2023/10/28 01:29:10;;;;;;;6.03;4.20;;;;;;;19.01;80.78;93883.44;5074945;28;20477;-77
2023/10/28 01:31:37;;;;;;;9.90;4.37;;;;;;;18.97;80.55;93906.13;5074796;28;20451;-78
2023/10/28 01:34:03;;;;;;;7.20;3.73;;;;;;;18.85;80.47;93901.44;5074393;28;20444;-78
2023/10/28 01:36:30;;;;;;;5.30;4.07;;;;;;;18.78;80.69;93883.84;5074384;28;20443;-78
2023/10/28 01:38:58;;;;;;;6.90;3.77;;;;;;;18.67;81.54;93882.63;5074558;28;20996;-78
2023/10/28 01:41:25;;;;;;;7.90;3.97;;;;;;;18.75;81.38;93884.25;5074268;28;20499;-78
2023/10/28 01:43:52;;;;;;;9.13;4.00;;;;;;;18.71;81.28;93889.16;5074489;28;20803;-78
2023/10/28 01:46:19;;;;;;;5.17;4.03;;;;;;;18.77;81.31;93898.16;5055695;28;21027;-78
2023/10/28 01:48:46;;;;;;;10.20;3.97;;;;;;;18.71;81.76;93891.81;5039213;28;20451;-78
2023/10/28 01:51:14;;;;;;;7.57;4.07;;;;;;;18.67;82.37;93903.88;5074060;28;20457;-78
2023/10/28 01:53:40;;;;;;;9.47;4.07;;;;;;;18.77;81.68;93898.16;5074050;28;20455;-78
2023/10/28 01:56:10;;;;;;;10.10;4.40;;;;;;;18.85;80.80;93895.31;5074530;28;20458;-77
2023/10/28 01:58:37;;;;;;;7.03;4.50;;;;;;;18.83;80.50;93894.69;5074132;28;20441;-78
2023/10/28 02:01:04;;;;;;;4.30;3.70;;;;;;;18.75;80.80;93890.38;5073840;28;20911;-78
2023/10/28 02:03:30;;;;;;;6.70;4.00;;;;;;;18.67;81.24;93874.66;5073985;28;20451;-77
2023/10/28 02:05:57;;;;;;;4.27;3.87;;;;;;;18.64;82.44;93890.19;5074112;28;20449;-77
2023/10/28 02:08:25;;;;;;;10.30;3.43;;;;;;;18.69;82.15;93885.06;5073723;28;20451;-78
2023/10/28 02:10:52;;;;;;;4.80;3.53;;;;;;;18.73;82.32;93887.13;5073752;28;20444;-78
2023/10/28 02:13:20;;;;;;;8.87;3.80;;;;;;;18.69;82.02;93895.72;5073801;28;20437;-77
2023/10/28 02:15:48;;;;;;;12.53;3.60;;;;;;;18.69;82.28;93901.03;5074103;28;20495;-77
2023/10/28 02:18:18;;;;;;;13.43;3.87;;;;;;;18.60;82.38;93907.53;5073958;28;20445;-78
2023/10/28 02:20:45;;;;;;;5.53;3.93;;;;;;;18.62;82.71;93913.47;5074145;28;20447;-77
2023/10/28 02:23:13;;;;;;;6.93;3.97;;;;;;;18.49;83.34;93914.25;5074001;28;20577;-77
2023/10/28 02:25:41;;;;;;;4.40;3.33;;;;;;;18.48;83.70;93921.41;5073776;28;20451;-77
2023/10/28 02:28:09;;;;;;;7.07;4.30;;;;;;;18.47;83.62;93919.75;5073681;28;20475;-78
2023/10/28 02:30:39;;;;;;;9.33;4.17;;;;;;;18.50;83.42;93910.56;5073294;28;20454;-78
2023/10/28 02:33:06;;;;;;;8.13;5.23;;;;;;;18.47;83.23;93910.97;5073427;28;20478;-77
2023/10/28 02:35:33;;;;;;;7.50;4.30;;;;;;;18.51;83.46;93917.53;5073580;28;20438;-77
2023/10/28 02:38:00;;;;;;;8.83;3.40;;;;;;;18.45;83.67;93919.16;5073724;28;20593;-77
2023/10/28 02:40:27;;;;;;;5.50;4.30;;;;;;;18.27;84.53;93917.09;5073368;28;20497;-78
2023/10/28 02:42:55;;;;;;;11.77;4.50;;;;;;;18.15;85.47;93920.50;5073373;28;20482;-77
2023/10/28 02:45:22;;;;;;;4.00;3.70;;;;;;;18.23;85.57;93936.28;5073070;28;20537;-77
2023/10/28 02:47:50;;;;;;;5.30;3.80;;;;;;;18.23;85.22;93917.69;5073236;28;20441;-77
2023/10/28 02:50:19;;;;;;;4.40;3.70;;;;;;;18.19;86.26;93932.38;5072981;28;20470;-77
2023/10/28 02:52:45;;;;;;;10.10;4.00;;;;;;;18.25;85.68;93926.28;5021590;28;20955;-77
2023/10/28 02:55:13;;;;;;;9.93;4.70;;;;;;;18.14;85.68;93924.19;5073119;28;20445;-77
2023/10/28 02:57:39;;;;;;;4.80;3.73;;;;;;;18.15;85.75;93925.81;5073330;28;20520;-77
2023/10/28 03:00:08;;;;;;;5.83;4.00;;;;;;;18.15;85.57;93928.47;5073069;28;20471;-78
2023/10/28 03:02:35;;;;;;;6.30;4.07;;;;;;;18.04;86.23;93926.41;5072175;28;20485;-77
2023/10/28 03:05:05;;;;;;;5.73;3.70;;;;;;;17.84;87.36;93919.19;5072933;28;20534;-77
2023/10/28 03:07:31;;;;;;;10.63;3.93;;;;;;;17.80;88.12;93919.78;5005221;28;20445;-78
2023/10/28 03:10:00;;;;;;;3.97;3.57;;;;;;;17.63;88.83;93913.94;5073131;28;20912;-78
2023/10/28 03:12:27;;;;;;;6.77;5.07;;;;;;;17.57;89.51;93909.44;5037696;28;20453;-78
2023/10/28 03:14:53;;;;;;;20.67;4.13;;;;;;;17.61;89.51;93918.63;5073254;28;20943;-77
2023/10/28 03:17:20;;;;;;;5.13;4.30;;;;;;;17.54;89.68;93925.75;5072805;28;20768;-77
2023/10/28 03:19:47;;;;;;;6.20;3.50;;;;;;;17.67;89.58;93923.19;5073087;28;20455;-77
2023/10/28 03:22:15;;;;;;;6.50;4.30;;;;;;;17.81;88.85;93926.72;5073088;28;20508;-77
2023/10/28 03:24:42;;;;;;;7.70;3.97;;;;;;;17.88;88.22;93928.38;5072927;28;20440;-77
2023/10/28 03:27:09;;;;;;;7.50;4.20;;;;;;;17.95;87.87;93933.75;5072506;28;20456;-77
2023/10/28 03:29:35;;;;;;;13.23;4.73;;;;;;;18.05;86.93;93931.50;5072673;28;20434;-77
2023/10/28 03:32:02;;;;;;;7.53;4.37;;;;;;;17.98;86.66;93935.16;5073262;28;20447;-78
2023/10/28 03:34:29;;;;;;;8.53;4.50;;;;;;;18.01;86.82;93934.78;5072474;28;20447;-77
2023/10/28 03:36:57;;;;;;;6.27;4.77;;;;;;;17.99;86.77;93942.94;5073490;28;20503;-77
2023/10/28 03:39:25;;;;;;;7.13;4.80;;;;;;;17.90;87.07;93938.78;5073031;28;21174;-77
2023/10/28 03:41:53;;;;;;;6.83;4.70;;;;;;;17.92;87.30;93958.00;5072633;28;20509;-77
2023/10/28 03:44:20;;;;;;;4.90;4.50;;;;;;;17.94;87.02;93962.13;5072509;28;20442;-77
2023/10/28 03:46:47;;;;;;;6.40;5.00;;;;;;;17.98;86.77;93951.91;5037580;28;20465;-78
2023/10/28 03:49:15;;;;;;;5.20;4.60;;;;;;;18.04;85.81;93953.78;5072749;28;20439;-78
2023/10/28 03:51:42;;;;;;;19.33;5.10;;;;;;;17.99;86.00;93952.72;5072674;28;20944;-77
2023/10/28 03:54:09;;;;;;;13.00;7.60;;;;;;;17.95;86.21;93955.78;5072857;28;20447;-77
2023/10/28 03:56:37;;;;;;;16.53;12.37;;;;;;;17.97;86.31;93962.75;5072616;28;20446;-77
2023/10/28 03:59:04;;;;;;;8.23;7.33;;;;;;;17.97;86.29;93962.75;5054202;28;20503;-78
2023/10/28 04:01:31;;;;;;;16.97;5.93;;;;;;;17.98;86.54;93962.53;5072435;28;20442;-77
2023/10/28 04:04:00;;;;;;;13.00;5.43;;;;;;;17.97;86.07;93983.97;5072417;28;20557;-77
2023/10/28 04:06:27;;;;;;;6.40;5.40;;;;;;;17.94;86.64;93979.88;5072407;28;20440;-77
2023/10/28 04:08:54;;;;;;;9.87;4.97;;;;;;;17.89;86.14;93974.31;5072480;28;20449;-77
2023/10/28 04:11:20;;;;;;;9.00;5.20;;;;;;;17.85;86.02;93978.38;5072146;28;20490;-77
2023/10/28 04:13:49;;;;;;;11.23;6.10;;;;;;;17.59;86.91;93965.75;5074713;28;20447;-78
2023/10/28 04:16:16;;;;;;;5.00;4.50;;;;;;;17.59;87.42;93969.22;5060903;28;20532;-77
2023/10/28 04:18:43;;;;;;;26.90;14.50;;;;;;;17.61;87.93;93972.50;5055982;28;20449;-78
2023/10/28 04:21:10;;;;;;;16.60;9.20;;;;;;;17.61;88.06;93969.03;5055888;28;20452;-77
2023/10/28 04:23:37;;;;;;;13.07;7.20;;;;;;;17.67;88.17;93975.41;5037140;28;20477;-77
2023/10/28 04:26:05;;;;;;;8.97;5.90;;;;;;;17.68;87.85;93977.91;5056278;28;20452;-78
2023/10/28 04:28:32;;;;;;;13.07;9.37;;;;;;;17.70;87.54;93980.34;5055676;28;20480;-78
2023/10/28 04:31:00;;;;;;;60.13;39.07;;;;;;;17.64;88.21;93980.09;5055881;28;20498;-77
2023/10/28 04:33:27;;;;;;;69.50;46.40;;;;;;;17.51;88.64;93953.47;5055869;28;20443;-77
2023/10/28 04:35:54;;;;;;;31.60;18.80;;;;;;;17.55;88.67;93975.13;5055641;28;20446;-77
2023/10/28 04:38:21;;;;;;;42.47;20.83;;;;;;;17.52;88.77;94004.69;5069958;28;20449;-77
2023/10/28 04:40:49;;;;;;;22.73;15.90;;;;;;;17.54;88.89;94007.97;5055693;28;20445;-77
2023/10/28 04:43:16;;;;;;;22.10;14.90;;;;;;;17.42;89.11;93986.47;5055629;28;20484;-77
2023/10/28 04:45:44;;;;;;;26.13;15.43;;;;;;;17.41;89.07;94000.75;5070172;28;20438;-78
2023/10/28 04:48:13;;;;;;;16.73;10.90;;;;;;;17.37;89.87;94006.66;5055271;28;20449;-78
2023/10/28 04:50:41;;;;;;;12.70;8.90;;;;;;;17.38;89.86;94011.75;5055570;28;20442;-78
2023/10/28 04:53:08;;;;;;;16.57;9.70;;;;;;;17.39;89.59;94007.28;5055864;28;20475;-78
2023/10/28 04:55:35;;;;;;;27.50;18.00;;;;;;;17.43;89.63;94016.47;5055423;28;20450;-79
2023/10/28 04:58:02;;;;;;;19.83;9.47;;;;;;;17.47;88.92;94017.72;5055676;28;20445;-78
2023/10/28 05:00:29;;;;;;;12.80;7.20;;;;;;;17.32;89.84;94008.03;5055382;28;20784;-78
2023/10/28 05:02:56;;;;;;;15.07;6.30;;;;;;;17.11;90.91;94017.84;5055282;28;20488;-78
2023/10/28 05:05:24;;;;;;;9.40;6.40;;;;;;;17.15;90.95;94022.59;5055517;28;21088;-78
2023/10/28 05:07:51;;;;;;;15.73;6.73;;;;;;;17.18;90.51;94030.16;5055279;28;20441;-78
2023/10/28 05:10:17;;;;;;;15.37;7.30;;;;;;;17.25;90.36;94028.38;5056771;28;20808;-79
2023/10/28 05:12:44;;;;;;;13.07;6.40;;;;;;;17.23;90.62;94017.13;5075071;28;20946;-79
2023/10/28 05:15:11;;;;;;;16.80;5.70;;;;;;;16.91;91.76;94023.78;5075389;28;20442;-79
2023/10/28 05:17:38;;;;;;;19.77;5.40;;;;;;;16.77;93.14;94032.63;5075375;28;20451;-78
2023/10/28 05:20:06;;;;;;;14.90;7.30;;;;;;;16.79;93.02;94035.91;5039794;28;20446;-79
2023/10/28 05:22:35;;;;;;;20.87;13.90;;;;;;;16.89;92.31;94040.91;5040240;28;20482;-79
2023/10/28 05:25:04;;;;;;;42.00;21.00;;;;;;;16.96;92.28;94044.44;5073899;28;20479;-78
2023/10/28 05:27:31;;;;;;;18.30;14.60;;;;;;;17.00;91.64;94045.69;5039180;28;20527;-77
2023/10/28 05:29:58;;;;;;;20.63;13.80;;;;;;;16.98;91.59;94045.88;5039596;28;20958;-77
2023/10/28 05:32:25;;;;;;;18.03;12.23;;;;;;;17.04;91.49;94052.25;5074448;28;20448;-74
2023/10/28 05:34:51;;;;;;;17.37;12.20;;;;;;;17.07;92.64;94054.53;5073792;28;20437;-74
2023/10/28 05:37:18;;;;;;;21.33;13.80;;;;;;;17.29;93.05;94055.31;5073770;28;20450;-75
2023/10/28 05:39:46;;;;;;;20.87;14.50;;;;;;;17.38;91.16;94054.19;5054939;28;20470;-74
2023/10/28 05:42:14;;;;;;;17.83;12.13;;;;;;;17.52;91.63;94055.91;5073606;28;20441;-74
2023/10/28 05:44:40;;;;;;;22.47;16.30;;;;;;;17.68;89.98;94062.81;5074071;28;20536;-75
2023/10/28 05:47:08;;;;;;;19.23;9.83;;;;;;;17.70;89.38;94076.69;5074462;28;20438;-77
2023/10/28 05:49:35;;;;;;;17.53;8.37;;;;;;;17.80;89.26;94077.16;5074248;28;20484;-78
2023/10/28 05:52:02;;;;;;;15.33;8.63;;;;;;;17.71;89.51;94069.56;5074413;28;20450;-81
2023/10/28 05:54:29;;;;;;;9.10;6.83;;;;;;;17.65;90.91;94073.78;5074047;28;20528;-78
2023/10/28 05:56:58;;;;;;;8.67;6.87;;;;;;;17.83;90.98;94086.56;5073952;28;20442;-77
2023/10/28 05:59:24;;;;;;;10.77;7.33;;;;;;;18.25;97.88;94086.44;5073710;28;20436;-76
2023/10/28 06:01:52;;;;;;;14.20;10.37;;;;;;;18.80;92.13;94084.66;5073227;28;20453;-79
2023/10/28 06:04:21;;;;;;;15.33;6.27;;;;;;;18.94;86.87;94088.16;5073468;28;20490;-76
2023/10/28 06:06:48;;;;;;;7.57;6.10;;;;;;;18.90;84.48;94110.03;5074109;28;20444;-76
2023/10/28 06:09:15;;;;;;;9.40;5.40;;;;;;;19.02;85.00;94111.91;5073785;28;20457;-76
2023/10/28 06:11:42;;;;;;;16.97;6.70;;;;;;;19.40;92.20;94116.69;5074099;28;20497;-79
2023/10/28 06:14:12;;;;;;;15.23;6.40;;;;;;;20.16;87.69;94100.31;5074273;28;20443;-79
2023/10/28 06:16:39;;;;;;;10.03;5.50;;;;;;;20.52;80.69;94099.81;5074739;28;20776;-79
2023/10/28 06:19:06;;;;;;;8.10;5.60;;;;;;;21.10;80.98;94103.25;5074554;28;20795;-80
2023/10/28 06:21:33;;;;;;;10.13;4.73;;;;;;;21.67;76.91;94108.69;5073904;28;20447;-79
2023/10/28 06:24:00;;;;;;;8.77;4.80;;;;;;;21.99;75.90;94112.97;5073853;28;20547;-77
2023/10/28 06:26:26;;;;;;;13.13;5.53;;;;;;;22.24;75.08;94107.59;5073590;28;20439;-77
2023/10/28 06:28:53;;;;;;;10.70;4.03;;;;;;;22.52;70.96;94133.84;5073498;28;20475;-76
2023/10/28 06:31:21;;;;;;;12.07;5.20;;;;;;;22.89;71.49;94133.91;5073431;28;20450;-76
2023/10/28 06:33:48;;;;;;;23.60;7.10;;;;;;;22.90;71.43;94136.34;5054822;28;20458;-76
2023/10/28 06:36:17;;;;;;;23.13;9.37;;;;;;;22.82;68.70;94140.13;5073321;28;20788;-76
2023/10/28 06:38:44;;;;;;;15.93;9.30;;;;;;;22.60;67.45;94143.44;5073453;28;20471;-78
2023/10/28 06:41:11;;;;;;;20.23;8.90;;;;;;;22.39;69.95;94150.03;5073216;28;20452;-78
2023/10/28 06:43:38;;;;;;;17.67;10.00;;;;;;;22.15;70.20;94147.16;5073695;28;20488;-78
2023/10/28 06:46:05;;;;;;;20.53;8.70;;;;;;;21.69;70.55;94150.19;5073606;28;21169;-79
2023/10/28 06:48:34;;;;;;;28.37;11.87;;;;;;;21.33;72.46;94158.81;5073888;28;20480;-78
2023/10/28 06:51:02;;;;;;;21.67;11.17;;;;;;;21.28;74.32;94169.31;5073710;28;20459;-80
2023/10/28 06:53:29;;;;;;;15.47;8.80;;;;;;;21.31;74.29;94168.88;5073352;28;20454;-80
2023/10/28 06:55:56;;;;;;;13.67;7.10;;;;;;;21.37;73.60;94176.03;5055105;28;20437;-78
2023/10/28 06:58:23;;;;;;;13.87;6.03;;;;;;;21.24;73.09;94179.59;5073862;28;20444;-79
2023/10/28 07:00:50;;;;;;;9.50;5.93;;;;;;;21.22;73.52;94175.47;5073810;28;20445;-77
2023/10/28 07:03:17;;;;;;;11.00;8.33;;;;;;;21.43;83.01;94188.53;5073214;28;20485;-75
2023/10/28 07:05:46;;;;;;;14.90;7.03;;;;;;;21.79;77.41;94190.56;5072993;28;20476;-74
2023/10/28 07:08:15;;;;;;;9.47;6.00;;;;;;;21.79;74.60;94190.56;5072799;28;20442;-76
2023/10/28 07:10:42;;;;;;;8.20;6.20;;;;;;;21.76;73.52;94188.34;5073007;28;20547;-76
2023/10/28 07:13:08;;;;;;;20.33;7.63;;;;;;;22.22;74.51;94201.34;5072641;28;20509;-76
2023/10/28 07:15:35;;;;;;;10.70;6.20;;;;;;;22.53;71.78;94196.97;5054451;28;20446;-76
2023/10/28 07:18:02;;;;;;;10.80;5.97;;;;;;;22.31;68.55;94201.94;5072834;28;20451;-76
2023/10/28 07:20:29;;;;;;;11.70;6.67;;;;;;;21.94;70.13;94206.28;5073403;28;20811;-77
2023/10/28 07:22:57;;;;;;;9.90;5.00;;;;;;;21.81;71.00;94214.41;5037546;28;20431;-76
2023/10/28 07:25:24;;;;;;;8.47;4.87;;;;;;;21.73;70.97;94225.34;5072650;28;20444;-76
2023/10/28 07:27:50;;;;;;;6.60;3.90;;;;;;;21.69;71.50;94219.63;5072435;28;20486;-77
2023/10/28 07:30:17;;;;;;;8.87;4.30;;;;;;;21.44;71.85;94211.53;5071763;28;20956;-75
2023/10/28 07:32:44;;;;;;;10.93;3.77;;;;;;;21.46;71.17;94209.47;5042591;28;23005;-74
2023/10/28 07:35:11;;;;;;;6.60;3.60;;;;;;;21.40;71.89;94204.97;5027563;28;20443;-78
2023/10/28 07:37:38;;;;;;;7.97;4.13;;;;;;;21.42;71.39;94218.94;5032411;28;20446;-76
2023/10/28 07:40:08;;;;;;;9.83;3.80;;;;;;;21.31;71.15;94212.41;5032601;28;20442;-76
2023/10/28 07:42:37;;;;;;;7.13;3.73;;;;;;;21.44;72.13;94221.38;4998612;28;20441;-77
2023/10/28 07:45:05;;;;;;;12.23;4.30;;;;;;;21.24;72.49;94206.28;5032730;28;20507;-78
2023/10/28 07:47:32;;;;;;;10.00;4.67;;;;;;;21.20;72.62;94218.38;5032626;28;20447;-78
2023/10/28 07:49:59;;;;;;;10.73;4.23;;;;;;;21.25;72.36;94217.78;5001615;28;20923;-78
2023/10/28 07:52:26;;;;;;;9.37;4.80;;;;;;;21.11;72.42;94219.66;5037098;28;20445;-77
2023/10/28 07:54:53;;;;;;;7.70;4.50;;;;;;;20.95;72.56;94212.91;5018135;28;20476;-77
2023/10/28 07:57:22;;;;;;;10.83;4.80;;;;;;;21.00;73.62;94210.44;5036865;28;20808;-77
2023/10/28 07:59:49;;;;;;;8.43;4.70;;;;;;;21.14;72.49;94224.56;5036496;28;20509;-80
2023/10/28 08:02:16;;;;;;;12.63;4.53;;;;;;;21.21;72.95;94222.69;5017871;28;20433;-79
2023/10/28 08:04:43;;;;;;;7.13;4.70;;;;;;;21.37;79.97;94231.25;5036665;28;20524;-79
2023/10/28 08:07:10;;;;;;;6.80;3.90;;;;;;;21.39;73.48;94222.00;5035226;28;20458;-77
2023/10/28 08:09:37;;;;;;;7.70;4.17;;;;;;;21.41;71.85;94232.50;5036239;28;20464;-76
2023/10/28 08:12:04;;;;;;;11.67;4.20;;;;;;;21.47;72.91;94227.13;5000769;28;20435;-76
2023/10/28 08:14:34;;;;;;;5.80;3.87;;;;;;;21.65;73.57;94234.41;5035935;28;20510;-76
2023/10/28 08:17:01;;;;;;;14.43;4.57;;;;;;;21.81;71.76;94233.09;5035666;28;20458;-76
2023/10/28 08:19:29;;;;;;;7.37;3.53;;;;;;;21.89;70.38;94232.81;5035792;28;20440;-76
2023/10/28 08:21:56;;;;;;;3.53;3.20;;;;;;;21.99;70.51;94219.81;5001832;28;20449;-78
2023/10/28 08:24:23;;;;;;;10.70;4.90;;;;;;;22.14;75.28;94223.03;5001321;28;20522;-79
2023/10/28 08:26:50;;;;;;;5.70;4.57;;;;;;;22.40;76.66;94230.00;5035751;28;20460;-77
2023/10/28 08:29:17;;;;;;;7.73;4.23;;;;;;;22.49;67.71;94228.69;5035448;28;20450;-77
2023/10/28 08:31:45;;;;;;;5.83;3.23;;;;;;;22.45;67.81;94227.50;5035525;28;20456;-77
2023/10/28 08:34:13;;;;;;;14.60;4.07;;;;;;;22.58;68.18;94234.59;5035655;28;20452;-78
2023/10/28 08:36:41;;;;;;;10.53;4.03;;;;;;;22.63;66.97;94236.59;5035940;28;21027;-77
2023/10/28 08:39:08;;;;;;;8.47;4.10;;;;;;;22.50;66.63;94232.19;5035374;28;20455;-78
2023/10/28 08:41:35;;;;;;;6.93;3.77;;;;;;;22.43;66.21;94237.59;5036067;28;20446;-78
2023/10/28 08:44:04;;;;;;;7.20;3.90;;;;;;;22.54;66.92;94241.41;5035612;28;20492;-75
2023/10/28 08:46:32;;;;;;;5.33;3.63;;;;;;;22.67;65.88;94246.66;5001361;28;20506;-79
2023/10/28 08:49:01;;;;;;;9.93;3.40;;;;;;;22.75;66.04;94249.03;5035372;28;20458;-78
2023/10/28 08:51:28;;;;;;;8.40;3.60;;;;;;;22.84;66.28;94245.09;5035572;28;20441;-79
2023/10/28 08:53:57;;;;;;;10.10;4.00;;;;;;;22.85;65.44;94244.03;5035234;28;20443;-77
2023/10/28 08:56:26;;;;;;;7.97;3.83;;;;;;;22.97;66.50;94243.28;5035676;28;20441;-79
2023/10/28 08:58:53;;;;;;;13.33;3.57;;;;;;;23.04;67.58;94236.00;5035592;28;20453;-81
2023/10/28 09:01:22;;;;;;;6.67;4.23;;;;;;;22.98;64.34;94232.38;5035904;28;20936;-80
2023/10/28 09:03:55;;;;;;;8.63;4.43;;;;;;;23.11;64.49;94242.91;5035490;28;20528;-81
2023/10/28 09:06:23;;;;;;;9.33;4.13;;;;;;;23.10;64.16;94243.13;5017225;28;20453;-82
2023/10/28 09:08:51;;;;;;;12.20;4.47;;;;;;;23.04;63.28;94238.69;5035268;28;20449;-79
2023/10/28 09:11:18;;;;;;;11.17;4.20;;;;;;;23.15;63.46;94244.13;5035463;28;20445;-82
2023/10/28 09:13:46;;;;;;;13.10;5.00;;;;;;;23.04;64.53;94249.38;5035796;28;20464;-82
2023/10/28 09:16:14;;;;;;;9.97;5.10;;;;;;;22.96;64.16;94244.34;5035339;28;20538;-82
2023/10/28 09:18:42;;;;;;;9.33;4.20;;;;;;;23.10;64.14;94237.78;5035532;28;20448;-77
2023/10/28 09:21:10;;;;;;;8.23;4.10;;;;;;;23.28;63.67;94235.13;5016243;28;20450;-78
2023/10/28 09:23:41;;;;;;;11.50;4.33;;;;;;;23.29;62.39;94243.97;5035651;28;20452;-78
2023/10/28 09:26:08;;;;;;;11.87;4.70;;;;;;;23.36;61.84;94242.84;5035245;28;20499;-78
2023/10/28 09:28:36;;;;;;;7.80;3.83;;;;;;;23.17;63.15;94243.91;5035005;28;21008;-77
2023/10/28 09:31:06;;;;;;;9.90;4.20;;;;;;;23.17;63.08;94235.88;5034822;28;20450;-77
2023/10/28 09:33:33;;;;;;;7.03;3.77;;;;;;;23.38;63.33;94234.56;5034924;28;20874;-77
2023/10/28 09:36:00;;;;;;;7.00;3.30;;;;;;;23.51;61.31;94233.63;5034190;28;20934;-77
2023/10/28 09:38:27;;;;;;;17.13;4.23;;;;;;;23.68;60.77;94240.81;5034029;28;20449;-76
2023/10/28 09:40:58;;;;;;;5.73;3.97;;;;;;;23.73;60.53;94232.13;5033869;28;20447;-77
2023/10/28 09:43:25;;;;;;;9.50;3.47;;;;;;;23.80;59.81;94230.16;5033576;28;20449;-77
2023/10/28 09:45:52;;;;;;;7.50;3.90;;;;;;;23.83;58.98;94224.34;5033524;28;20580;-77
2023/10/28 09:48:20;;;;;;;9.67;4.10;;;;;;;23.93;58.83;94229.16;5033632;28;20441;-77
2023/10/28 09:50:50;;;;;;;3.63;3.33;;;;;;;24.04;61.86;94234.56;5033867;28;20446;-76
2023/10/28 09:53:18;;;;;;;12.47;3.60;;;;;;;24.12;59.01;94224.53;5033514;28;20442;-77
2023/10/28 09:55:46;;;;;;;7.57;3.13;;;;;;;24.04;57.89;94217.66;5033783;28;20450;-81
2023/10/28 09:58:22;;;;;;;26.17;14.23;;;;;;;24.08;57.62;94224.19;5033920;28;20449;-81
2023/10/28 10:00:51;;;;;;;20.17;9.23;;;;;;;24.18;74.58;94218.25;5033477;28;20813;-81
2023/10/28 10:03:31;;;;;;;14.43;7.00;;;;;;;24.20;69.95;94219.66;5033055;28;20480;-78
2023/10/28 10:05:59;;;;;;;13.53;5.23;;;;;;;24.12;59.49;94219.19;5033180;28;21020;-78
2023/10/28 10:08:26;;;;;;;7.30;4.23;;;;;;;24.22;64.24;94219.44;5033225;28;20442;-81
2023/10/28 10:10:55;;;;;;;5.90;3.87;;;;;;;24.27;58.64;94212.31;5032822;28;20445;-81
2023/10/28 10:13:23;;;;;;;5.73;3.80;;;;;;;24.26;53.27;94209.88;5033063;28;20844;-80
2023/10/28 10:15:56;;;;;;;8.37;2.70;;;;;;;24.34;51.23;94201.53;5033591;28;20941;-82
2023/10/28 10:18:33;;;;;;;8.40;2.80;;;;;;;24.40;46.99;94197.94;5033250;28;20442;-81
2023/10/28 10:21:09;;;;;;;5.03;1.80;;;;;;;24.37;46.01;94206.44;5033404;28;20446;-81
2023/10/28 10:23:42;;;;;;;3.47;2.50;;;;;;;24.37;46.34;94195.72;5033229;28;20446;-80
2023/10/28 10:26:08;;;;;;;5.13;1.97;;;;;;;24.42;45.98;94187.78;5032996;28;20486;-80
2023/10/28 10:28:47;;;;;;;8.87;3.10;;;;;;;24.40;46.02;94192.56;4997962;28;20482;-80
2023/10/28 10:31:14;;;;;;;5.03;2.33;;;;;;;24.35;44.41;94187.09;5032923;28;20478;-80
2023/10/28 10:33:40;;;;;;;3.50;2.10;;;;;;;24.40;44.01;94184.50;5032861;28;20447;-80
2023/10/28 10:36:16;;;;;;;4.50;2.07;;;;;;;24.42;43.52;94185.09;5032800;28;20442;-80
2023/10/28 10:38:43;;;;;;;3.23;1.77;;;;;;;24.41;44.78;94183.47;5032620;28;20442;-81
2023/10/28 10:41:10;;;;;;;6.27;2.00;;;;;;;24.48;45.09;94184.16;5032895;28;20447;-80
2023/10/28 10:43:40;;;;;;;3.77;2.20;;;;;;;24.53;44.64;94176.22;5032624;28;20954;-80
2023/10/28 10:46:07;;;;;;;6.37;2.10;;;;;;;24.64;44.75;94177.28;5032593;28;20487;-80
2023/10/28 10:48:34;;;;;;;4.20;2.30;;;;;;;24.73;44.82;94178.56;5032696;28;20465;-77
2023/10/28 10:51:02;;;;;;;5.20;2.13;;;;;;;24.84;44.58;94179.59;5032427;28;20481;-77
2023/10/28 10:53:29;;;;;;;5.50;2.33;;;;;;;24.88;42.81;94184.28;5013818;28;20489;-76
2023/10/28 10:55:55;;;;;;;3.57;1.67;;;;;;;24.95;41.72;94173.41;5032396;28;20458;-78
2023/10/28 10:58:22;;;;;;;4.43;2.10;;;;;;;24.97;42.66;94177.50;5032559;28;20493;-78
2023/10/28 11:00:54;;;;;;;3.90;1.70;;;;;;;24.89;41.54;94171.69;5032066;28;20454;-79
2023/10/28 11:03:24;;;;;;;6.37;2.50;;;;;;;24.82;42.13;94179.81;5032379;28;20533;-77
2023/10/28 11:05:52;;;;;;;3.97;1.80;;;;;;;24.87;42.19;94174.59;5032206;28;20587;-78
2023/10/28 11:08:19;;;;;;;4.10;2.10;;;;;;;24.84;41.64;94182.28;5032612;28;20558;-78
2023/10/28 11:10:46;;;;;;;2.93;2.30;;;;;;;24.81;43.69;94172.81;5032652;28;20446;-78
2023/10/28 11:13:13;;;;;;;5.33;1.97;;;;;;;24.85;42.81;94178.53;5032480;28;20446;-78
2023/10/28 11:15:40;;;;;;;4.67;1.93;;;;;;;24.82;41.93;94171.78;5032010;28;20450;-78
2023/10/28 11:18:08;;;;;;;6.23;2.13;;;;;;;24.84;42.71;94182.28;5031932;28;20446;-77
2023/10/28 11:20:35;;;;;;;3.80;2.17;;;;;;;24.88;40.61;94186.16;5032186;28;20932;-77
2023/10/28 11:23:03;;;;;;;3.93;2.00;;;;;;;24.90;39.72;94189.41;5032962;28;20587;-77
2023/10/28 11:25:33;;;;;;;3.57;2.10;;;;;;;24.90;38.66;94170.63;5036163;28;20552;-77
2023/10/28 11:28:06;;;;;;;6.73;1.63;;;;;;;24.95;38.84;94176.91;5001092;28;20482;-76
2023/10/28 11:30:33;;;;;;;4.63;1.67;;;;;;;24.92;39.04;94181.94;5036090;28;20462;-76